Mount Auburn, IL (62547)

10:44 PM CDT die 18o September, anno 2014 (GMT -0500)
APPLEVILLE | Change Station
CLOSE
Current Station
Personal Weather Stations
Location: Mt Auburn, IL
Elevation: 607 ft
Nearby Weather Stations

Elev 607 ft 39.80 °N, 89.14 °W | Updated 4 minutes ago

Serena
Serena
57.2 °F
Feels Like 57.2 °F
N
0.0
Ventus Variabilis Ventus from Magis Zephyrus quam Aquilo
Gusts 0.0 mph

Hodie
High -- | Low -- °F
--% Chance of Precip.
Yesterday
High -- | Low -- °F
Precip. -- in
6:40 AM 7:00 PM
Waning Crescent, 22% visible
Pressio 30.09 in
Visibilitas 10.0 milia passuum
Clouds Serena
Frigus in quo Ros apparet 19 °F
Umor 22%
Rainfall 0.00 in
Snow Depth Not available.
UV 0 out of 12
Pollen 6.00 out of 12
Ozone Good
PM2.5 Good
Flu Activity Not available.
METAR KTAZ 190335Z AUTO 10005KT 10SM CLR 13/08 A3009 RMK AO2

More Conditions Fewer Conditions

Pressio 30.09 in
Visibilitas 10.0 milia passuum
Clouds Serena
Frigus in quo Ros apparet 19 °F
Umor 22%
Rainfall 0.00 in
Snow Depth Not available.
UV 0 out of 12
Pollen 6.00 out of 12
Ozone Good
PM2.5 Good
Flu Activity Not available.
METAR KTAZ 190335Z AUTO 10005KT 10SM CLR 13/08 A3009 RMK AO2

More Conditions Fewer Conditions

10-Day Weather Forecast

Almanac

Astronomy

Sep. 18, 2014 Rise Set
Actual Time 6:40 AM CDT 7:00 PM CDT
Civil Twilight 6:13 AM CDT 7:27 PM CDT
Nautical Twilight 5:41 AM CDT 7:59 PM CDT
Astronomical Twilight 5:09 AM CDT 8:31 PM CDT
Moon 1:33 AM CDT (9/18) 3:51 PM CDT (9/18)
Length Of Visible Light 13h 13m
Length of Day
12h 19m
Tomorrow will be 2m 35s shorter.
Waning Crescent, 22% of the Moon is Illuminated
Hodie
Waning Crescent
Sep 24
New
Oct 1
First Quarter
Oct 8
Full
Oct 15
Last Quarter

Today's Extremes

State Highs State Lows

Community

WunderPhotos

Upload Photos

1,754,553 photos uploaded!

Nearby

Air Quality

  Air Quality AQ Index Pollutant
Yesterday Moderate
PM2.5
Yesterday Good
OZONE
Current Good
PM2.5
Current Good
OZONE
Die Jovis Good
PM2.5
Die Veneris Moderate
PM2.5
Die Saturni Moderate
PM2.5
Die Solis Good
PM2.5

Snow Depth

Station Depth Elevation
No new snow has been reported.

Earthquake Activity

City Distance Mag. Time & Date
No recent earthquake activity has been reported nearby.
Minimum magnitude displayed is 2.5.

Coastal Water Temperatures

Locus Calor
No Stations Reporting

Nearby Weather Stations